Time;durP1;ratioP1;P1;durP2;ratioP2;P2;SDS_P1;SDS_P2;PMS_P1;PMS_P2;Temp;Humidity;BMP_temperature;BMP_pressure;BME280_temperature;BME280_humidity;BME280_pressure;Samples;Min_cycle;Max_cycle;Signal;HPM_P1;HPM_P2
2021/07/16 00:01:28;;;;;;;4.80;3.88;;;21.30;99.90;;;;;;4990284;28;20030;-82
2021/07/16 00:03:54;;;;;;;5.53;3.80;;;21.30;99.90;;;;;;4991799;28;20103;-77
2021/07/16 00:06:19;;;;;;;6.18;3.83;;;21.30;99.90;;;;;;4991934;28;20038;-82
2021/07/16 00:08:45;;;;;;;6.47;3.60;;;21.30;99.90;;;;;;4991924;28;20018;-79
2021/07/16 00:11:11;;;;;;;4.85;3.30;;;21.30;99.90;;;;;;4990641;28;20042;-78
2021/07/16 00:13:37;;;;;;;5.60;3.95;;;21.30;99.90;;;;;;4991918;28;20061;-78
2021/07/16 00:16:05;;;;;;;6.93;3.72;;;21.30;99.90;;;;;;4990925;28;20027;-81
2021/07/16 00:18:31;;;;;;;6.03;4.13;;;21.30;99.90;;;;;;4992033;28;20042;-83
2021/07/16 00:20:57;;;;;;;5.75;3.50;;;21.30;99.90;;;;;;4998212;28;20482;-77
2021/07/16 00:23:23;;;;;;;7.30;3.63;;;21.20;99.90;;;;;;4998053;28;20033;-81
2021/07/16 00:25:49;;;;;;;7.30;3.75;;;21.20;99.90;;;;;;4998098;28;20034;-81
2021/07/16 00:28:15;;;;;;;5.35;3.55;;;21.30;99.90;;;;;;4998253;28;20057;-83
2021/07/16 00:30:41;;;;;;;4.50;3.38;;;21.30;99.90;;;;;;4997899;28;20621;-82
2021/07/16 00:33:07;;;;;;;5.78;3.35;;;21.20;99.90;;;;;;4997517;28;20376;-82
2021/07/16 00:35:32;;;;;;;6.40;3.80;;;21.20;99.90;;;;;;4997907;28;20031;-82
2021/07/16 00:37:58;;;;;;;6.05;3.25;;;21.20;99.90;;;;;;4997334;28;20050;-82
2021/07/16 00:40:25;;;;;;;6.68;3.40;;;21.20;99.90;;;;;;4997441;28;20031;-80
2021/07/16 00:42:51;;;;;;;6.97;4.00;;;21.20;99.90;;;;;;4997401;28;20052;-80
2021/07/16 00:45:17;;;;;;;6.68;3.70;;;21.20;99.90;;;;;;4998132;28;20530;-81
2021/07/16 00:47:45;;;;;;;6.60;3.50;;;21.20;99.90;;;;;;4998175;28;20045;-78
2021/07/16 00:50:21;;;;;;;7.10;3.33;;;21.20;99.90;;;;;;4998110;28;20033;-82
2021/07/16 00:52:47;;;;;;;5.80;3.70;;;21.20;99.90;;;;;;4997575;28;20034;-82
2021/07/16 00:55:15;;;;;;;6.22;3.47;;;21.20;99.90;;;;;;4997984;28;20030;-80
2021/07/16 00:57:41;;;;;;;8.40;3.95;;;21.20;99.90;;;;;;4996321;28;20042;-82
2021/07/16 01:00:08;;;;;;;6.65;3.53;;;21.20;99.90;;;;;;4997462;28;20026;-82
2021/07/16 01:02:35;;;;;;;5.53;3.50;;;21.20;99.90;;;;;;4997186;28;20419;-81
2021/07/16 01:05:01;;;;;;;7.60;4.00;;;21.20;99.90;;;;;;4997735;28;20022;-81
2021/07/16 01:07:27;;;;;;;7.32;3.25;;;21.20;99.90;;;;;;4997205;28;20390;-82
2021/07/16 01:09:52;;;;;;;6.05;3.47;;;21.20;99.90;;;;;;4997286;28;20033;-80
2021/07/16 01:12:21;;;;;;;8.45;3.72;;;21.20;99.90;;;;;;4997543;28;20121;-79
2021/07/16 01:14:47;;;;;;;6.78;3.63;;;21.20;99.90;;;;;;4997549;28;20079;-79
2021/07/16 01:17:13;;;;;;;6.20;3.92;;;21.20;99.90;;;;;;4997849;28;20042;-79
2021/07/16 01:19:57;;;;;;;5.95;3.45;;;21.20;99.90;;;;;;5009642;28;20034;-80
2021/07/16 01:22:27;;;;;;;7.28;3.97;;;21.20;99.90;;;;;;4979197;28;20476;-79
2021/07/16 01:24:54;;;;;;;6.85;3.90;;;21.20;99.90;;;;;;4997086;28;20486;-78
2021/07/16 01:27:20;;;;;;;6.78;3.50;;;21.20;99.90;;;;;;4996226;28;20041;-79
2021/07/16 01:29:47;;;;;;;6.13;4.00;;;21.20;99.90;;;;;;4997573;28;20045;-78
2021/07/16 01:32:17;;;;;;;5.75;3.78;;;21.20;99.90;;;;;;4994156;28;20030;-83
2021/07/16 01:34:44;;;;;;;5.82;3.92;;;21.20;99.90;;;;;;4980127;28;20030;-82
2021/07/16 01:37:10;;;;;;;6.60;3.90;;;21.20;99.90;;;;;;4993479;28;20077;-81
2021/07/16 01:39:36;;;;;;;6.68;3.53;;;21.20;99.90;;;;;;4993508;28;20030;-77
2021/07/16 01:42:06;;;;;;;6.53;3.40;;;21.10;99.90;;;;;;4983546;28;20038;-78
2021/07/16 01:44:32;;;;;;;7.22;4.03;;;21.10;99.90;;;;;;4994300;28;20062;-77
2021/07/16 01:46:59;;;;;;;5.95;3.75;;;21.20;99.90;;;;;;4994180;28;20109;-77
2021/07/16 01:49:25;;;;;;;7.55;4.07;;;21.10;99.90;;;;;;4994062;28;20449;-77
2021/07/16 01:51:50;;;;;;;8.57;3.75;;;21.20;99.90;;;;;;4993734;28;20033;-82
2021/07/16 01:54:16;;;;;;;6.93;3.83;;;21.10;99.90;;;;;;4994152;28;20023;-82
2021/07/16 01:56:42;;;;;;;8.52;4.13;;;21.10;99.90;;;;;;4994015;28;20070;-80
2021/07/16 01:59:08;;;;;;;6.97;3.58;;;21.10;99.90;;;;;;4992355;28;20077;-78
2021/07/16 02:01:33;;;;;;;9.32;4.00;;;21.10;99.90;;;;;;4993927;28;20459;-77
2021/07/16 02:03:59;;;;;;;8.45;3.83;;;21.10;99.90;;;;;;4992325;28;20032;-78
2021/07/16 02:06:25;;;;;;;6.57;3.70;;;21.10;99.90;;;;;;4993583;28;20030;-80
2021/07/16 02:08:50;;;;;;;6.20;3.60;;;21.10;99.90;;;;;;4993366;28;20041;-79
2021/07/16 02:11:20;;;;;;;8.55;4.93;;;21.10;99.90;;;;;;4993647;28;20030;-77
2021/07/16 02:13:47;;;;;;;6.25;4.15;;;21.10;99.90;;;;;;4993710;28;20022;-80
2021/07/16 02:16:13;;;;;;;6.68;3.50;;;21.10;99.90;;;;;;4994224;28;20023;-79
2021/07/16 02:18:38;;;;;;;6.03;3.70;;;21.10;99.90;;;;;;4993311;28;20045;-79
2021/07/16 02:21:04;;;;;;;10.27;4.50;;;21.10;99.90;;;;;;4993041;28;20148;-81
2021/07/16 02:23:30;;;;;;;5.78;3.95;;;21.10;99.90;;;;;;4993300;28;20034;-80
2021/07/16 02:25:57;;;;;;;11.05;4.30;;;21.10;99.90;;;;;;4993471;28;20034;-81
2021/07/16 02:28:31;;;;;;;6.65;3.83;;;21.10;99.90;;;;;;4993458;28;20100;-80
2021/07/16 02:31:00;;;;;;;7.97;3.63;;;21.10;99.90;;;;;;4993484;28;20125;-78
2021/07/16 02:33:26;;;;;;;7.90;4.30;;;21.10;99.90;;;;;;4992843;28;20107;-78
2021/07/16 02:35:52;;;;;;;6.85;3.50;;;21.10;99.90;;;;;;4993331;28;20153;-78
2021/07/16 02:38:18;;;;;;;8.02;3.72;;;21.10;99.90;;;;;;4993228;28;20042;-79
2021/07/16 02:40:44;;;;;;;6.97;3.88;;;21.10;99.90;;;;;;4992708;28;20030;-79
2021/07/16 02:43:10;;;;;;;6.78;3.63;;;21.10;99.90;;;;;;4991820;28;20034;-83
2021/07/16 02:45:35;;;;;;;4.90;3.88;;;21.10;99.90;;;;;;4993083;28;20022;-81
2021/07/16 02:48:02;;;;;;;7.30;3.85;;;21.10;99.90;;;;;;4992589;28;20026;-79
2021/07/16 02:50:33;;;;;;;6.00;3.90;;;21.10;99.90;;;;;;4992914;28;20553;-82
2021/07/16 02:52:59;;;;;;;7.45;3.75;;;21.10;99.90;;;;;;4993082;28;20502;-77
2021/07/16 02:55:25;;;;;;;7.47;3.83;;;21.00;99.90;;;;;;4991995;28;20022;-80
2021/07/16 02:57:51;;;;;;;6.20;3.55;;;21.10;99.90;;;;;;4992029;28;20129;-78
2021/07/16 03:00:21;;;;;;;7.70;4.35;;;21.10;99.90;;;;;;4992181;28;20089;-78
2021/07/16 03:02:49;;;;;;;4.78;3.30;;;21.10;99.90;;;;;;4991892;28;20712;-77
2021/07/16 03:05:21;;;;;;;7.07;3.88;;;21.10;99.90;;;;;;4992112;28;20046;-78
2021/07/16 03:07:49;;;;;;;7.22;3.50;;;21.00;99.90;;;;;;4992773;28;20030;-78
2021/07/16 03:10:36;;;;;;;5.20;3.70;;;21.00;99.90;;;;;;4991901;28;20022;-80
2021/07/16 03:13:05;;;;;;;6.90;3.67;;;21.00;99.90;;;;;;4992667;28;20042;-79
2021/07/16 03:15:31;;;;;;;5.22;3.65;;;21.00;99.90;;;;;;4992811;28;20018;-78
2021/07/16 03:17:57;;;;;;;6.15;3.42;;;21.00;99.90;;;;;;4990332;28;20386;-77
2021/07/16 03:20:43;;;;;;;7.80;4.00;;;21.00;99.90;;;;;;4992726;28;20026;-78
2021/07/16 03:23:10;;;;;;;5.57;3.38;;;21.00;99.90;;;;;;4992186;28;20100;-76
2021/07/16 03:25:36;;;;;;;7.63;4.28;;;21.00;99.90;;;;;;4993235;28;20085;-76
2021/07/16 03:28:08;;;;;;;7.78;3.75;;;21.00;99.90;;;;;;4990717;28;20109;-79
2021/07/16 03:30:35;;;;;;;7.97;3.75;;;21.00;99.90;;;;;;4991662;28;20026;-80
2021/07/16 03:33:00;;;;;;;8.93;4.45;;;21.00;99.90;;;;;;4992282;28;20042;-79
2021/07/16 03:35:27;;;;;;;6.55;4.00;;;21.00;99.90;;;;;;4992119;28;20025;-77
2021/07/16 03:37:54;;;;;;;6.80;3.63;;;21.00;99.90;;;;;;4990397;28;20046;-80
2021/07/16 03:40:22;;;;;;;6.35;3.72;;;21.00;99.90;;;;;;4991754;28;20038;-78
2021/07/16 03:42:49;;;;;;;6.70;3.78;;;21.00;99.90;;;;;;4991516;28;20041;-79
2021/07/16 03:45:15;;;;;;;9.52;3.80;;;21.00;99.90;;;;;;4991951;28;20023;-81
2021/07/16 03:47:43;;;;;;;8.13;3.78;;;21.00;99.90;;;;;;4991830;28;20085;-78
2021/07/16 03:50:10;;;;;;;5.93;3.35;;;21.00;99.90;;;;;;4991929;28;20025;-82
2021/07/16 03:52:36;;;;;;;6.65;3.55;;;21.00;99.90;;;;;;4991878;28;20090;-81
2021/07/16 03:55:05;;;;;;;7.68;3.85;;;20.90;99.90;;;;;;4990736;28;20022;-78
2021/07/16 03:57:32;;;;;;;9.23;3.67;;;21.00;99.90;;;;;;4992187;28;20108;-79
2021/07/16 04:00:02;;;;;;;8.65;3.78;;;20.90;99.90;;;;;;4991601;28;20046;-80
2021/07/16 04:02:28;;;;;;;7.60;3.70;;;21.00;99.90;;;;;;4990321;28;20026;-80
2021/07/16 04:04:54;;;;;;;6.20;4.25;;;20.90;99.90;;;;;;4991329;28;20495;-78
2021/07/16 04:07:25;;;;;;;7.40;3.60;;;21.00;99.90;;;;;;4991782;28;20033;-79
2021/07/16 04:09:51;;;;;;;4.93;3.10;;;21.00;99.90;;;;;;4991377;28;20027;-78
2021/07/16 04:12:19;;;;;;;9.07;3.95;;;20.90;99.90;;;;;;4991888;28;20125;-78
2021/07/16 04:14:49;;;;;;;7.50;3.70;;;21.00;99.90;;;;;;4992121;28;20027;-77
2021/07/16 04:17:22;;;;;;;5.50;3.53;;;20.90;99.90;;;;;;4990608;28;20113;-80
2021/07/16 04:19:48;;;;;;;6.55;3.70;;;20.90;99.90;;;;;;4990522;28;20080;-78
2021/07/16 04:22:15;;;;;;;7.05;4.05;;;20.90;99.90;;;;;;4990642;28;20057;-80
2021/07/16 04:24:42;;;;;;;5.63;3.80;;;20.90;99.90;;;;;;4991287;28;20049;-81
2021/07/16 04:27:09;;;;;;;7.80;3.67;;;20.90;99.90;;;;;;4991217;28;20578;-80
2021/07/16 04:29:39;;;;;;;7.20;3.92;;;20.90;99.90;;;;;;4991594;28;20109;-79
2021/07/16 04:32:06;;;;;;;5.68;3.63;;;20.90;99.90;;;;;;4991515;28;20033;-79
2021/07/16 04:34:34;;;;;;;8.00;4.15;;;20.90;99.90;;;;;;4990885;28;20038;-79
2021/07/16 04:37:01;;;;;;;7.72;3.40;;;20.90;99.90;;;;;;4991266;28;20038;-78
2021/07/16 04:39:26;;;;;;;6.40;4.15;;;20.90;99.90;;;;;;4989561;28;20391;-81
2021/07/16 04:41:52;;;;;;;6.63;4.28;;;20.90;99.90;;;;;;4990889;28;20030;-78
2021/07/16 04:44:18;;;;;;;5.70;3.55;;;20.90;99.90;;;;;;4992013;28;20029;-82
2021/07/16 04:46:43;;;;;;;6.18;3.30;;;20.90;99.90;;;;;;4991402;28;20018;-79
2021/07/16 04:49:09;;;;;;;6.20;4.03;;;20.90;99.90;;;;;;5006433;28;20077;-82
2021/07/16 04:51:35;;;;;;;7.53;3.78;;;20.90;99.90;;;;;;4991238;28;20475;-79
2021/07/16 04:54:03;;;;;;;6.20;3.85;;;20.90;99.90;;;;;;4990761;28;20116;-80
2021/07/16 04:56:29;;;;;;;6.63;3.78;;;20.90;99.90;;;;;;4990025;28;20034;-80
2021/07/16 04:58:55;;;;;;;6.03;3.78;;;20.90;99.90;;;;;;4991359;28;20030;-79
2021/07/16 05:01:23;;;;;;;6.05;3.60;;;20.90;99.90;;;;;;4989550;28;20490;-78
2021/07/16 05:03:49;;;;;;;7.85;4.07;;;20.90;99.90;;;;;;4990708;28;20034;-78
2021/07/16 05:06:16;;;;;;;7.03;4.07;;;20.90;99.90;;;;;;4992529;28;20027;-78
2021/07/16 05:08:42;;;;;;;5.45;3.50;;;20.90;99.90;;;;;;4994638;28;20113;-79
2021/07/16 05:11:08;;;;;;;5.55;3.30;;;20.90;99.90;;;;;;4995083;28;20122;-79
2021/07/16 05:13:36;;;;;;;7.45;4.15;;;20.90;99.90;;;;;;4993724;28;20027;-81
2021/07/16 05:16:03;;;;;;;6.53;4.00;;;20.90;99.90;;;;;;4994783;28;20061;-80
2021/07/16 05:18:29;;;;;;;6.60;3.83;;;20.90;99.90;;;;;;4994020;28;20581;-81
2021/07/16 05:20:56;;;;;;;9.40;3.70;;;20.90;99.90;;;;;;4994497;28;20454;-81
2021/07/16 05:23:22;;;;;;;6.07;4.20;;;20.80;99.90;;;;;;4994228;28;20026;-77
2021/07/16 05:25:47;;;;;;;9.73;4.03;;;20.80;99.90;;;;;;4994817;28;20022;-77
2021/07/16 05:28:13;;;;;;;5.20;3.30;;;20.80;99.90;;;;;;4993469;28;20030;-81
2021/07/16 05:30:39;;;;;;;4.82;3.15;;;20.80;99.90;;;;;;4994135;28;20026;-83
2021/07/16 05:33:04;;;;;;;8.57;3.47;;;20.80;99.90;;;;;;4993905;28;20482;-82
2021/07/16 05:35:30;;;;;;;5.53;3.58;;;20.80;99.90;;;;;;4993879;28;20544;-82
2021/07/16 05:37:56;;;;;;;7.38;3.97;;;20.80;99.90;;;;;;4993864;28;20039;-84
2021/07/16 05:40:22;;;;;;;6.72;3.88;;;20.80;99.90;;;;;;4993866;28;20084;-78
2021/07/16 05:42:47;;;;;;;5.15;3.13;;;20.80;99.90;;;;;;4993937;28;20502;-78
2021/07/16 05:45:13;;;;;;;8.63;3.97;;;20.80;99.90;;;;;;4993798;28;20044;-75
2021/07/16 05:47:39;;;;;;;8.93;3.88;;;20.80;99.90;;;;;;4994029;28;20037;-77
2021/07/16 05:50:05;;;;;;;5.65;3.28;;;20.80;99.90;;;;;;4993885;28;20534;-78
2021/07/16 05:52:32;;;;;;;6.35;3.50;;;20.80;99.90;;;;;;4993728;28;20036;-81
2021/07/16 05:54:58;;;;;;;6.28;3.63;;;20.80;99.90;;;;;;4993949;28;20054;-78
2021/07/16 05:57:24;;;;;;;6.32;3.58;;;20.80;99.90;;;;;;4993925;28;20034;-79
2021/07/16 05:59:50;;;;;;;6.55;3.83;;;20.80;99.90;;;;;;5009467;28;20129;-75
2021/07/16 06:02:16;;;;;;;6.07;3.67;;;20.80;99.90;;;;;;4993819;28;20494;-77
2021/07/16 06:04:41;;;;;;;7.38;3.63;;;20.80;99.90;;;;;;4993322;28;20089;-75
2021/07/16 06:07:07;;;;;;;5.80;3.20;;;20.80;99.90;;;;;;4993884;28;20027;-77
2021/07/16 06:09:32;;;;;;;4.72;3.50;;;20.80;99.90;;;;;;4991025;28;20057;-76
2021/07/16 06:11:58;;;;;;;8.60;3.53;;;20.80;99.90;;;;;;4990827;28;20117;-75
2021/07/16 06:14:24;;;;;;;7.47;4.13;;;20.80;99.90;;;;;;4993129;28;20069;-78
2021/07/16 06:16:49;;;;;;;8.55;4.57;;;20.80;99.90;;;;;;4991773;28;20027;-80
2021/07/16 06:19:19;;;;;;;7.47;4.10;;;20.80;99.90;;;;;;4988897;28;20106;-82
2021/07/16 06:21:45;;;;;;;9.27;3.70;;;20.80;99.90;;;;;;4981453;28;20022;-84
2021/07/16 06:24:12;;;;;;;7.65;3.63;;;20.80;99.90;;;;;;5007270;28;20255;-81
2021/07/16 06:26:37;;;;;;;8.80;4.15;;;20.80;99.90;;;;;;4989891;28;20026;-82
2021/07/16 06:29:04;;;;;;;8.05;4.22;;;20.80;99.90;;;;;;4988425;28;20499;-84
2021/07/16 06:31:30;;;;;;;9.40;3.97;;;20.80;99.90;;;;;;4991293;28;20019;-86
2021/07/16 06:33:55;;;;;;;7.53;3.95;;;20.80;99.90;;;;;;4990635;28;20422;-83
2021/07/16 06:36:21;;;;;;;9.70;3.97;;;20.80;99.90;;;;;;4993221;28;20037;-77
2021/07/16 06:38:47;;;;;;;9.20;3.72;;;20.80;99.90;;;;;;4992304;28;20073;-77
2021/07/16 06:41:13;;;;;;;10.25;4.00;;;20.90;99.90;;;;;;4990923;28;20014;-83
2021/07/16 06:43:39;;;;;;;8.88;3.78;;;20.80;99.90;;;;;;4992838;28;20022;-83
2021/07/16 06:46:05;;;;;;;9.38;3.83;;;20.80;99.90;;;;;;4992641;28;20030;-82
2021/07/16 06:48:31;;;;;;;9.45;3.90;;;20.90;99.90;;;;;;4992974;28;20038;-79
2021/07/16 06:50:56;;;;;;;9.82;3.55;;;20.80;99.90;;;;;;4993184;28;20022;-77
2021/07/16 06:53:22;;;;;;;8.50;3.80;;;20.80;99.90;;;;;;4993680;28;20034;-76
2021/07/16 06:55:48;;;;;;;8.07;3.97;;;20.80;99.90;;;;;;4993312;28;20094;-85
2021/07/16 06:58:14;;;;;;;8.60;4.43;;;20.90;99.90;;;;;;4992794;28;20038;-87
2021/07/16 07:00:40;;;;;;;8.00;3.90;;;20.80;99.90;;;;;;4992964;28;20018;-77
2021/07/16 07:03:06;;;;;;;15.38;3.72;;;20.80;99.90;;;;;;4993031;28;20023;-84
2021/07/16 07:05:31;;;;;;;12.05;3.60;;;20.80;99.90;;;;;;4991974;28;20037;-84
2021/07/16 07:07:57;;;;;;;10.20;3.97;;;20.90;99.90;;;;;;4991899;28;20434;-85
2021/07/16 07:10:23;;;;;;;13.13;3.58;;;20.80;99.90;;;;;;4993016;28;20023;-82
2021/07/16 07:12:48;;;;;;;11.57;3.83;;;20.80;99.90;;;;;;4992854;28;20084;-79
2021/07/16 07:15:14;;;;;;;9.50;3.60;;;20.90;99.90;;;;;;4992862;28;20034;-85
2021/07/16 07:17:41;;;;;;;12.77;5.00;;;20.80;99.90;;;;;;4992497;28;20455;-78
2021/07/16 07:20:08;;;;;;;8.05;3.50;;;20.80;99.90;;;;;;4993156;28;20030;-80
2021/07/16 07:22:34;;;;;;;5.60;3.70;;;20.80;99.90;;;;;;4992679;28;20022;-76
2021/07/16 07:25:00;;;;;;;10.30;3.95;;;20.80;99.90;;;;;;4992474;28;20034;-84
2021/07/16 07:27:25;;;;;;;9.95;3.72;;;20.80;99.90;;;;;;4992742;28;20496;-85
2021/07/16 07:29:51;;;;;;;6.65;3.30;;;20.80;99.90;;;;;;4992168;28;20026;-85
2021/07/16 07:32:17;;;;;;;7.32;3.40;;;20.80;99.90;;;;;;4992595;28;20027;-83
2021/07/16 07:34:42;;;;;;;8.55;3.70;;;20.80;99.90;;;;;;4992142;28;20033;-84
2021/07/16 07:37:08;;;;;;;14.85;4.15;;;20.80;99.90;;;;;;4992490;28;20027;-87
2021/07/16 07:39:34;;;;;;;8.32;3.47;;;20.80;99.90;;;;;;4991111;28;20045;-85
2021/07/16 07:42:00;;;;;;;9.55;3.40;;;20.80;99.90;;;;;;4992103;28;20030;-83
2021/07/16 07:44:26;;;;;;;12.07;4.15;;;20.80;99.90;;;;;;4992548;28;20042;-85
2021/07/16 07:46:51;;;;;;;8.18;3.67;;;20.80;99.90;;;;;;4992380;28;20058;-87
2021/07/16 07:49:17;;;;;;;8.05;3.25;;;20.80;99.90;;;;;;4992165;28;20030;-86
2021/07/16 07:51:43;;;;;;;6.57;3.22;;;20.80;99.90;;;;;;4991990;28;20054;-86
2021/07/16 07:54:09;;;;;;;7.88;3.22;;;20.80;99.90;;;;;;4992114;28;20030;-85
2021/07/16 07:56:36;;;;;;;10.45;4.00;;;20.80;99.90;;;;;;4991972;28;20026;-86
2021/07/16 07:59:04;;;;;;;8.50;3.28;;;20.80;99.90;;;;;;4991841;28;20503;-84
2021/07/16 08:01:31;;;;;;;9.13;3.58;;;20.80;99.90;;;;;;4992149;28;20101;-86
2021/07/16 08:03:57;;;;;;;8.30;3.35;;;20.80;99.90;;;;;;4991840;28;20058;-84
2021/07/16 08:06:23;;;;;;;8.82;3.75;;;20.80;99.90;;;;;;4992311;28;20447;-86
2021/07/16 08:08:48;;;;;;;7.85;3.30;;;20.80;99.90;;;;;;4991681;28;20395;-82
2021/07/16 08:11:14;;;;;;;13.18;3.67;;;20.80;99.90;;;;;;4991650;28;20121;-84
2021/07/16 08:13:39;;;;;;;8.88;3.70;;;20.80;99.90;;;;;;4991770;28;20534;-80
2021/07/16 08:16:05;;;;;;;10.55;3.38;;;20.80;99.90;;;;;;4991891;28;20022;-80
2021/07/16 08:18:31;;;;;;;7.90;3.03;;;20.80;99.90;;;;;;4991761;28;20088;-80
2021/07/16 08:20:56;;;;;;;5.63;2.60;;;20.80;99.90;;;;;;4991534;28;20025;-80
2021/07/16 08:23:22;;;;;;;7.63;3.35;;;20.80;99.90;;;;;;4992216;28;20372;-81
2021/07/16 08:25:48;;;;;;;7.80;3.50;;;20.80;99.90;;;;;;4991351;28;20498;-84
2021/07/16 08:28:13;;;;;;;7.10;2.95;;;20.90;99.90;;;;;;4991549;28;20463;-86
2021/07/16 08:30:39;;;;;;;6.05;3.20;;;20.90;99.90;;;;;;4991813;28;20150;-76
2021/07/16 08:33:05;;;;;;;7.53;2.80;;;20.90;99.90;;;;;;4991724;28;20610;-84
2021/07/16 08:35:31;;;;;;;7.43;3.25;;;20.80;99.90;;;;;;4991621;28;20050;-84
2021/07/16 08:37:57;;;;;;;9.20;3.50;;;20.90;99.90;;;;;;4991343;28;20482;-85
2021/07/16 08:40:23;;;;;;;6.18;3.38;;;20.80;99.90;;;;;;4993651;28;20066;-85
2021/07/16 08:42:49;;;;;;;9.13;2.80;;;20.90;99.90;;;;;;4995339;28;20030;-84
2021/07/16 08:45:15;;;;;;;6.45;2.97;;;20.90;99.90;;;;;;4995649;28;20026;-85
2021/07/16 08:47:42;;;;;;;9.48;3.20;;;20.90;99.90;;;;;;4995277;28;20390;-84
2021/07/16 08:50:11;;;;;;;5.70;2.55;;;20.90;99.90;;;;;;4995431;28;20018;-84
2021/07/16 08:52:38;;;;;;;6.63;3.05;;;20.90;99.90;;;;;;4995534;28;20500;-85
2021/07/16 08:55:05;;;;;;;10.90;2.67;;;20.90;99.90;;;;;;4995126;28;20486;-84
2021/07/16 08:57:31;;;;;;;4.78;2.70;;;20.90;99.90;;;;;;4995213;28;20455;-86
2021/07/16 08:59:58;;;;;;;9.20;2.90;;;20.90;99.90;;;;;;4995084;28;20101;-84
2021/07/16 09:02:29;;;;;;;10.90;3.00;;;20.90;99.90;;;;;;4995521;28;20390;-80
2021/07/16 09:05:00;;;;;;;8.15;3.33;;;20.90;99.90;;;;;;4995258;28;20049;-85
2021/07/16 09:07:27;;;;;;;6.65;2.80;;;20.90;99.90;;;;;;4995332;28;20026;-83
2021/07/16 09:10:07;;;;;;;6.47;2.80;;;20.90;99.90;;;;;;4993972;28;20022;-84
2021/07/16 09:12:35;;;;;;;6.93;3.10;;;20.90;99.90;;;;;;4994808;28;20030;-83
2021/07/16 09:15:08;;;;;;;7.65;2.90;;;20.90;99.90;;;;;;4994857;28;20026;-83
2021/07/16 09:17:35;;;;;;;9.27;3.22;;;20.90;99.90;;;;;;4993535;28;20028;-85
2021/07/16 09:20:02;;;;;;;7.10;3.03;;;20.90;99.90;;;;;;4994473;28;20041;-81
2021/07/16 09:22:33;;;;;;;6.75;3.10;;;20.90;99.90;;;;;;4994890;28;20041;-80
2021/07/16 09:25:04;;;;;;;6.47;2.70;;;20.90;99.90;;;;;;4994753;28;20083;-80
2021/07/16 09:27:32;;;;;;;6.60;2.70;;;20.90;99.90;;;;;;4994941;28;20026;-85
2021/07/16 09:30:21;;;;;;;7.60;3.15;;;20.90;99.90;;;;;;4994453;28;20069;-81
2021/07/16 09:33:07;;;;;;;6.88;2.58;;;20.90;99.90;;;;;;4994439;28;20450;-78
2021/07/16 09:35:38;;;;;;;8.10;3.03;;;20.90;99.90;;;;;;4994902;28;20105;-78
2021/07/16 09:38:13;;;;;;;5.07;2.38;;;20.90;99.90;;;;;;4994294;28;20441;-77
2021/07/16 09:40:52;;;;;;;7.00;2.93;;;20.90;99.90;;;;;;4994750;28;20027;-79
2021/07/16 09:43:21;;;;;;;7.35;2.60;;;20.90;99.90;;;;;;4994617;28;20323;-81
2021/07/16 09:46:01;;;;;;;8.30;2.85;;;21.00;99.90;;;;;;4994294;28;20026;-83
2021/07/16 09:48:32;;;;;;;7.50;3.08;;;20.90;99.90;;;;;;4994842;28;20430;-76
2021/07/16 09:51:18;;;;;;;8.45;2.95;;;20.90;99.90;;;;;;4994514;28;20053;-76
2021/07/16 09:53:49;;;;;;;6.43;2.67;;;20.90;99.90;;;;;;4994143;28;20391;-79
2021/07/16 09:56:18;;;;;;;7.07;2.90;;;20.90;99.90;;;;;;4994626;28;20030;-77
2021/07/16 09:58:45;;;;;;;6.43;3.00;;;21.00;99.90;;;;;;4994634;28;20054;-79
2021/07/16 10:01:11;;;;;;;6.53;2.50;;;20.90;99.90;;;;;;4995279;28;20037;-78
2021/07/16 10:03:38;;;;;;;8.00;2.72;;;20.90;99.90;;;;;;4994107;28;20026;-85
2021/07/16 10:06:05;;;;;;;5.82;2.28;;;20.90;99.90;;;;;;4994055;28;20077;-84
2021/07/16 10:08:35;;;;;;;7.05;2.80;;;20.90;99.90;;;;;;4994167;28;20030;-84
2021/07/16 10:11:05;;;;;;;7.18;2.60;;;20.90;99.90;;;;;;4994593;28;20479;-85
2021/07/16 10:13:34;;;;;;;6.97;2.50;;;21.00;99.90;;;;;;4994087;28;20101;-85
2021/07/16 10:16:01;;;;;;;6.15;2.40;;;21.00;99.90;;;;;;4994500;28;20515;-81
2021/07/16 10:18:28;;;;;;;5.03;2.53;;;20.90;99.90;;;;;;4994226;28;20027;-83
2021/07/16 10:20:55;;;;;;;5.75;2.58;;;21.00;99.90;;;;;;4994074;28;20029;-84
2021/07/16 10:23:23;;;;;;;8.38;3.03;;;21.00;99.90;;;;;;4993992;28;20100;-76
2021/07/16 10:25:49;;;;;;;7.57;2.78;;;21.00;99.90;;;;;;4992425;28;20547;-82
2021/07/16 10:28:35;;;;;;;8.32;2.70;;;20.90;99.90;;;;;;4994041;28;20030;-78
2021/07/16 10:31:01;;;;;;;8.73;3.42;;;21.00;99.90;;;;;;4993527;28;20072;-79
2021/07/16 10:33:35;;;;;;;7.63;3.00;;;21.00;99.90;;;;;;4992642;28;20105;-80
2021/07/16 10:36:01;;;;;;;6.47;2.58;;;21.00;99.90;;;;;;4993271;28;20030;-78
2021/07/16 10:38:34;;;;;;;9.38;2.90;;;21.00;99.90;;;;;;4993821;28;20117;-77
2021/07/16 10:41:01;;;;;;;8.63;2.53;;;21.00;99.90;;;;;;4993361;28;20494;-86
2021/07/16 10:43:27;;;;;;;7.15;2.53;;;21.00;99.90;;;;;;4993733;28;20022;-80
2021/07/16 10:45:57;;;;;;;8.50;3.03;;;21.00;99.90;;;;;;4993237;28;20029;-85
2021/07/16 10:48:33;;;;;;;9.88;3.13;;;21.00;99.90;;;;;;4993602;28;20022;-81
2021/07/16 10:51:00;;;;;;;5.90;2.58;;;21.00;99.80;;;;;;4993507;28;20022;-79
2021/07/16 10:53:29;;;;;;;7.45;2.85;;;21.00;99.90;;;;;;4993650;28;20177;-82
2021/07/16 10:55:54;;;;;;;5.45;2.40;;;21.00;99.80;;;;;;4993143;28;20029;-84
2021/07/16 10:58:28;;;;;;;9.63;2.90;;;21.00;99.80;;;;;;4993229;28;20367;-84
2021/07/16 11:00:55;;;;;;;6.60;3.08;;;21.00;99.80;;;;;;4993122;28;20044;-85
2021/07/16 11:03:22;;;;;;;7.47;3.30;;;21.00;99.60;;;;;;4992268;28;20041;-83
2021/07/16 11:05:49;;;;;;;6.55;2.30;;;21.00;99.90;;;;;;4992823;28;20050;-81
2021/07/16 11:08:40;;;;;;;6.22;1.80;;;21.00;99.70;;;;;;4993147;28;20034;-84
2021/07/16 11:11:16;;;;;;;7.55;2.22;;;21.00;99.40;;;;;;4992827;28;20034;-77
2021/07/16 11:13:48;;;;;;;5.70;2.47;;;21.10;99.60;;;;;;4992703;28;20039;-78
2021/07/16 11:16:16;;;;;;;6.22;2.70;;;21.10;99.50;;;;;;4992919;28;20022;-76
2021/07/16 11:18:54;;;;;;;6.05;2.40;;;21.00;99.30;;;;;;4992523;28;20573;-81
2021/07/16 11:21:40;;;;;;;7.70;2.67;;;21.10;99.30;;;;;;4992881;28;20041;-79
2021/07/16 11:24:18;;;;;;;7.13;2.80;;;21.10;99.20;;;;;;4992688;28;20475;-79
2021/07/16 11:27:12;;;;;;;5.63;1.98;;;21.10;99.30;;;;;;4992482;28;20105;-79
2021/07/16 11:29:50;;;;;;;3.90;1.98;;;21.10;99.20;;;;;;4991230;28;20042;-76
2021/07/16 11:32:21;;;;;;;6.72;2.92;;;21.10;99.10;;;;;;4992596;28;20105;-76
2021/07/16 11:34:55;;;;;;;6.57;2.63;;;21.10;99.00;;;;;;4990841;28;20398;-76
2021/07/16 11:37:31;;;;;;;6.43;2.13;;;21.10;99.10;;;;;;4992329;28;20073;-77
2021/07/16 11:40:12;;;;;;;6.15;2.42;;;21.10;99.10;;;;;;4992113;28;20092;-75
2021/07/16 11:42:45;;;;;;;7.90;2.50;;;21.10;99.00;;;;;;4991021;28;20030;-77
2021/07/16 11:45:37;;;;;;;6.85;2.50;;;21.10;99.10;;;;;;4992445;28;20113;-79
2021/07/16 11:48:18;;;;;;;5.40;2.53;;;21.10;99.30;;;;;;4990870;28;20034;-77
2021/07/16 11:50:46;;;;;;;7.65;2.35;;;21.10;99.30;;;;;;4991847;28;20096;-84
2021/07/16 11:53:13;;;;;;;6.57;2.13;;;21.20;98.90;;;;;;4992254;28;20117;-76
2021/07/16 11:55:41;;;;;;;5.88;2.35;;;21.20;98.80;;;;;;4992114;28;20394;-76
2021/07/16 11:58:07;;;;;;;7.07;2.25;;;21.20;98.70;;;;;;4991937;28;20113;-79
2021/07/16 12:00:38;;;;;;;6.93;2.63;;;21.20;98.60;;;;;;4992354;28;20105;-77
2021/07/16 12:03:08;;;;;;;6.15;2.03;;;21.20;98.60;;;;;;4992055;28;20034;-78
2021/07/16 12:05:49;;;;;;;9.23;2.60;;;21.20;98.80;;;;;;4992341;28;20021;-77
2021/07/16 12:08:28;;;;;;;5.95;2.05;;;21.20;98.50;;;;;;4991961;28;20415;-76
2021/07/16 12:11:11;;;;;;;5.43;2.08;;;21.20;98.60;;;;;;4991569;28;20030;-76
2021/07/16 12:13:40;;;;;;;6.55;2.20;;;21.20;98.50;;;;;;4991658;28;20049;-76
2021/07/16 12:16:15;;;;;;;6.43;2.50;;;21.30;98.50;;;;;;4991543;28;20033;-76
2021/07/16 12:18:42;;;;;;;8.35;2.47;;;21.20;98.80;;;;;;4991487;28;20243;-76
2021/07/16 12:21:10;;;;;;;5.70;2.22;;;21.30;98.50;;;;;;4991902;28;20019;-80
2021/07/16 12:23:36;;;;;;;5.40;2.15;;;21.30;98.40;;;;;;4991646;28;20048;-85
2021/07/16 12:26:17;;;;;;;7.93;2.45;;;21.30;98.30;;;;;;4991802;28;20042;-81
2021/07/16 12:28:43;;;;;;;6.90;2.58;;;21.30;98.30;;;;;;4991458;28;20109;-82
2021/07/16 12:31:09;;;;;;;4.22;2.08;;;21.30;98.30;;;;;;4991680;28;20098;-85
2021/07/16 12:33:36;;;;;;;4.72;2.00;;;21.40;98.20;;;;;;4991999;28;20026;-85
2021/07/16 12:36:03;;;;;;;4.05;1.77;;;21.40;98.30;;;;;;4991752;28;20084;-85
2021/07/16 12:38:35;;;;;;;5.97;2.30;;;21.40;98.20;;;;;;4991557;28;20043;-81
2021/07/16 12:41:09;;;;;;;6.20;2.10;;;21.40;98.20;;;;;;4991657;28;20528;-77
2021/07/16 12:43:44;;;;;;;7.50;2.90;;;21.40;98.20;;;;;;4991902;28;20042;-76
2021/07/16 12:46:10;;;;;;;;;;;21.40;98.30;;;;;;4992132;28;20482;-77
2021/07/16 12:48:36;;;;;;;;;;;21.40;98.30;;;;;;4992112;28;19960;-77
2021/07/16 12:51:09;;;;;;;6.38;1.75;;;21.40;98.20;;;;;;4991536;28;19913;-77
2021/07/16 12:53:50;;;;;;;5.97;2.70;;;21.40;98.10;;;;;;4991820;28;20401;-77